Tor Futura — OZZE2 — position and weather

sailwx.info

Track history (hours):
 
Tides and Currents Weather Stations Pressure Air Temp Water Temp Dewpoint Dewpoint Depression Visibility Wind Speed Wind Dir Waves Ship Positions

Tor Futura

Last reported at 2016-May-30 20:10 UTC. Time now 2016-May-31 03:58 UTC.
Position N 43°19' E 005°22'.

Length 183.1 m; beam 25.2 m; draft 7.8 m.

Type: Ship. MMSI: 219927000.

Date/timePositionNaut miles runAvg speedWind from/ knotsBaromVisibWave heightAir tempDewpointWater temp
2016-May-30 20:10N 43°19' E 005°22'0 0.0
2016-May-30 18:10N 43°19' E 005°22'0 0.0
2016-May-30 06:18N 43°19' E 005°21'4 4.9
2016-May-30 05:31N 43°20' E 005°16'1110.7
2016-May-30 04:32N 43°10' E 005°13'31016.0
2016-May-29 09:08N 38°41' E 008°38'11516.2
2016-May-29 02:04N 37°24' E 010°25'3116.5
2016-May-29 00:10N 36°53' E 010°25'  
2016-May-22 15:13N 37°32' E 010°14'1015.0
2016-May-22 14:33N 37°34' E 010°02'3315.4
2016-May-22 12:23N 37°57' E 009°31'1315.5
2016-May-22 11:33N 38°06' E 009°19'1615.7
2016-May-22 10:33N 38°17' E 009°05'1615.9
2016-May-22 09:32N 38°28' E 008°50'19115.9
2016-May-21 21:32N 41°11' E 006°40'8116.2
2016-May-21 16:31N 42°21' E 005°47'2016.4
2016-May-21 15:19N 42°38' E 005°34'1616.0
2016-May-21 14:17N 42°53' E 005°23'1215.8
2016-May-21 13:33N 43°02' E 005°14'1414.4
2016-May-21 12:34N 43°17' E 005°10'9 8.8
2016-May-21 11:33N 43°19' E 005°22'0 0.0
2016-May-21 10:33N 43°19' E 005°22'0 0.0
2016-May-21 09:24N 43°19' E 005°22'0 0.0
2016-May-21 08:24N 43°19' E 005°22'0 0.0
2016-May-21 07:27N 43°19' E 005°22'0 0.0
2016-May-21 06:27N 43°19' E 005°22'0 0.0
2016-May-21 05:30N 43°19' E 005°22'1 1.4
2016-May-21 04:33N 43°20' E 005°20'9 9.2
2016-May-21 03:33N 43°14' E 005°11'2114.4
2016-May-21 02:07N 42°56' E 005°23'2314.9
2016-May-21 00:33N 42°35' E 005°38'  
Track history (hours):
 
Tides and Currents Weather Stations Pressure Air Temp Water Temp Dewpoint Dewpoint Depression Visibility Wind Speed Wind Dir Waves Ship Positions

Tor Futura

Last reported at 2016-May-30 20:10 UTC. Time now 2016-May-31 03:58 UTC.
Position N 43°19' E 005°22'.

Length 183.1 m; beam 25.2 m; draft 7.8 m.

Type: Ship. MMSI: 219927000.

Date/timePositionNaut miles runAvg speedWind from/ knotsBaromVisibWave heightAir tempDewpointWater temp
2016-May-30 20:10N 43°19' E 005°22'0 0.0
2016-May-30 18:10N 43°19' E 005°22'0 0.0
2016-May-30 06:18N 43°19' E 005°21'4 4.9
2016-May-30 05:31N 43°20' E 005°16'1110.7
2016-May-30 04:32N 43°10' E 005°13'31016.0
2016-May-29 09:08N 38°41' E 008°38'11516.2
2016-May-29 02:04N 37°24' E 010°25'3116.5
2016-May-29 00:10N 36°53' E 010°25'  
2016-May-22 15:13N 37°32' E 010°14'1015.0
2016-May-22 14:33N 37°34' E 010°02'3315.4
2016-May-22 12:23N 37°57' E 009°31'1315.5
2016-May-22 11:33N 38°06' E 009°19'1615.7
2016-May-22 10:33N 38°17' E 009°05'1615.9
2016-May-22 09:32N 38°28' E 008°50'19115.9
2016-May-21 21:32N 41°11' E 006°40'8116.2
2016-May-21 16:31N 42°21' E 005°47'2016.4
2016-May-21 15:19N 42°38' E 005°34'1616.0
2016-May-21 14:17N 42°53' E 005°23'1215.8
2016-May-21 13:33N 43°02' E 005°14'1414.4
2016-May-21 12:34N 43°17' E 005°10'9 8.8
2016-May-21 11:33N 43°19' E 005°22'0 0.0
2016-May-21 10:33N 43°19' E 005°22'0 0.0
2016-May-21 09:24N 43°19' E 005°22'0 0.0
2016-May-21 08:24N 43°19' E 005°22'0 0.0
2016-May-21 07:27N 43°19' E 005°22'0 0.0
2016-May-21 06:27N 43°19' E 005°22'0 0.0
2016-May-21 05:30N 43°19' E 005°22'1 1.4
2016-May-21 04:33N 43°20' E 005°20'9 9.2
2016-May-21 03:33N 43°14' E 005°11'2114.4
2016-May-21 02:07N 42°56' E 005°23'2314.9
2016-May-21 00:33N 42°35' E 005°38'  

Dump ship's entire track history